Welcome to Des Moines Iowa Weather. I am an independent private personal weather station on the Northwest Side of Des Moines, Iowa. Just East of Windsor Heights and just West of Glendale . This site is also mobile friendly.

There are no active watches, warnings or advisories


Visit our other weather sites:

Historical Data

Weather Station Setup



Weather Underground History page Text

Daily Summary for January 6, 2018 Units:  English    Metric   Both
« Previous Day
Next Day »
Daily Weekly Monthly Yearly Custom
  High: Low: Average:
Temperature: 15.9 °F -3.9 °F 6.5 °F
Dew Point: 7.0 °F -8.0 °F -1.8 °F
Humidity: 83 % 50 % 70 %
Wind Speed: 7.0 mph 0.0 mph 1.6 mph
Wind Gust: 13.0 mph - -
Wind:- - SSE
Pressure: 30.68 in 30.20 in -
Precipitation: 0.00 in    
Historical Graphs
 
 
Tabular Data for January 6, 2018
Time Temperature Dew Point Pressure Wind Wind Speed Wind Gust Humidity Rainfall Rate (Hourly)
00:07 -1.4 °F -6.0 °F 30.66 in Calm     79 % 0.00 in
00:22 -1.8 °F -7.0 °F 30.66 in Calm     79 % 0.00 in
00:37 -2.1 °F -7.0 °F 30.66 in Calm     80 % 0.00 in
00:53 -2.4 °F -7.0 °F 30.66 in Calm     80 % 0.00 in
01:08 -2.5 °F -7.0 °F 30.66 in Calm     81 % 0.00 in
01:23 -2.6 °F -7.0 °F 30.66 in Calm     81 % 0.00 in
01:38 -2.8 °F -7.0 °F 30.66 in Calm     82 % 0.00 in
01:53 -3.0 °F -7.0 °F 30.67 in Calm     82 % 0.00 in
02:08 -3.1 °F -7.0 °F 30.67 in Calm     82 % 0.00 in
02:23 -3.0 °F -7.0 °F 30.68 in Calm   1.0 mph 83 % 0.00 in
02:38 -2.8 °F -7.0 °F 30.67 in Calm     83 % 0.00 in
02:53 -2.8 °F -7.0 °F 30.67 in Calm   1.0 mph 83 % 0.00 in
03:08 -3.0 °F -7.0 °F 30.67 in Calm     83 % 0.00 in
03:23 -3.1 °F -7.0 °F 30.67 in Calm   2.0 mph 83 % 0.00 in
03:38 -3.1 °F -7.0 °F 30.67 in Calm     83 % 0.00 in
03:53 -3.0 °F -7.0 °F 30.67 in Calm   1.0 mph 83 % 0.00 in
04:08 -3.1 °F -7.0 °F 30.66 in Calm   1.0 mph 83 % 0.00 in
04:23 -3.1 °F -7.0 °F 30.66 in Calm     83 % 0.00 in
04:39 -3.2 °F -7.0 °F 30.66 in Calm     83 % 0.00 in
04:54 -3.2 °F -7.0 °F 30.66 in Calm   1.0 mph 83 % 0.00 in
05:09 -3.3 °F -7.0 °F 30.67 in Calm     83 % 0.00 in
05:24 -3.5 °F -7.0 °F 30.66 in Calm     83 % 0.00 in
05:39 -3.6 °F -8.0 °F 30.66 in Calm     83 % 0.00 in
05:54 -3.6 °F -8.0 °F 30.66 in Calm   2.0 mph 83 % 0.00 in
06:09 -3.6 °F -8.0 °F 30.66 in Calm     83 % 0.00 in
06:24 -3.8 °F -8.0 °F 30.65 in Calm     83 % 0.00 in
06:39 -3.9 °F -8.0 °F 30.65 in Calm   2.0 mph 83 % 0.00 in
06:54 -3.9 °F -8.0 °F 30.65 in Calm   2.0 mph 83 % 0.00 in
07:09 -3.7 °F -8.0 °F 30.65 in Calm   1.0 mph 83 % 0.00 in
07:24 -3.7 °F -8.0 °F 30.65 in Calm     83 % 0.00 in
07:39 -3.7 °F -8.0 °F 30.64 in Calm     83 % 0.00 in
07:55 -3.5 °F -7.0 °F 30.65 in Calm     83 % 0.00 in
08:10 -3.1 °F -7.0 °F 30.65 in SSE 1.0 mph 6.0 mph 83 % 0.00 in
08:25 -2.7 °F -7.0 °F 30.66 in SSE 2.0 mph 7.0 mph 83 % 0.00 in
08:40 -2.5 °F -6.0 °F 30.66 in Calm   5.0 mph 83 % 0.00 in
08:55 -1.8 °F -6.0 °F 30.66 in SSE 1.0 mph 5.0 mph 82 % 0.00 in
09:10 -0.6 °F -5.0 °F 30.66 in Calm   5.0 mph 82 % 0.00 in
09:25 0.2 °F -5.0 °F 30.66 in Calm   6.0 mph 80 % 0.00 in
09:40 1.2 °F -4.0 °F 30.66 in SSE 2.0 mph 5.0 mph 79 % 0.00 in
09:55 2.7 °F -3.0 °F 30.65 in Calm   6.0 mph 77 % 0.00 in
10:10 3.8 °F -3.0 °F 30.66 in South 2.0 mph 5.0 mph 74 % 0.00 in
10:25 4.9 °F -2.0 °F 30.66 in South 2.0 mph 5.0 mph 72 % 0.00 in
10:40 4.9 °F -3.0 °F 30.66 in SSE 2.0 mph 5.0 mph 71 % 0.00 in
10:55 4.9 °F -3.0 °F 30.65 in SE 2.0 mph 4.0 mph 70 % 0.00 in
11:11 5.8 °F -2.0 °F 30.64 in SSE 2.0 mph 7.0 mph 70 % 0.00 in
11:26 6.5 °F -2.0 °F 30.64 in SSE 4.0 mph 6.0 mph 67 % 0.00 in
11:41 7.6 °F -2.0 °F 30.62 in SSE 4.0 mph 8.0 mph 64 % 0.00 in
11:56 9.0 °F -2.0 °F 30.61 in SE 2.0 mph 4.0 mph 62 % 0.00 in
12:11 10.1 °F -2.0 °F 30.60 in SSE 4.0 mph 8.0 mph 59 % 0.00 in
12:26 10.7 °F -2.0 °F 30.59 in South 2.0 mph 7.0 mph 57 % 0.00 in
12:41 11.8 °F -1.0 °F 30.56 in SSE 4.0 mph 7.0 mph 56 % 0.00 in
12:56 11.7 °F -2.0 °F 30.54 in South 2.0 mph 10.0 mph 54 % 0.00 in
13:11 12.1 °F -2.0 °F 30.52 in East 4.0 mph 7.0 mph 54 % 0.00 in
13:26 13.0 °F -1.0 °F 30.52 in SE 2.0 mph 7.0 mph 54 % 0.00 in
13:41 13.6 °F -2.0 °F 30.52 in SSE 6.0 mph 7.0 mph 51 % 0.00 in
13:56 14.8 °F -1.0 °F 30.50 in SE 1.0 mph 5.0 mph 50 % 0.00 in
14:11 14.4 °F -1.0 °F 30.49 in SSE 1.0 mph 8.0 mph 50 % 0.00 in
14:26 14.6 °F -1.0 °F 30.48 in SSE 2.0 mph 8.0 mph 50 % 0.00 in
14:42 14.9 °F 0.0 °F 30.48 in SSE 2.0 mph 5.0 mph 51 % 0.00 in
14:58 15.2 °F 0.0 °F 30.47 in South 4.0 mph 9.0 mph 51 % 0.00 in
15:12 15.3 °F 0.0 °F 30.47 in SE 3.0 mph 9.0 mph 51 % 0.00 in
15:27 15.5 °F 0.0 °F 30.46 in SE 5.0 mph 10.0 mph 50 % 0.00 in
15:42 15.6 °F 0.0 °F 30.46 in SSE 2.0 mph 6.0 mph 51 % 0.00 in
15:57 15.6 °F 0.0 °F 30.45 in South 7.0 mph 8.0 mph 51 % 0.00 in
16:12 15.5 °F 1.0 °F 30.44 in Calm   7.0 mph 52 % 0.00 in
16:27 15.6 °F 1.0 °F 30.43 in SSE 1.0 mph 7.0 mph 52 % 0.00 in
16:42 15.5 °F 1.0 °F 30.43 in South 3.0 mph 7.0 mph 53 % 0.00 in
17:12 15.2 °F 2.0 °F 30.42 in South 1.0 mph 9.0 mph 56 % 0.00 in
17:27 15.0 °F 2.0 °F 30.41 in SSE 2.0 mph 7.0 mph 56 % 0.00 in
17:42 14.9 °F 2.0 °F 30.40 in ESE 3.0 mph 7.0 mph 56 % 0.00 in
18:13 14.7 °F 2.0 °F 30.38 in SE 4.0 mph 8.0 mph 58 % 0.00 in
18:28 14.6 °F 3.0 °F 30.38 in SSE 2.0 mph 8.0 mph 59 % 0.00 in
18:43 14.6 °F 3.0 °F 30.37 in ESE 3.0 mph 13.0 mph 59 % 0.00 in
18:58 14.5 °F 3.0 °F 30.37 in South 2.0 mph 8.0 mph 60 % 0.00 in
19:13 14.4 °F 3.0 °F 30.37 in SE 1.0 mph 11.0 mph 61 % 0.00 in
19:28 14.3 °F 4.0 °F 30.36 in SSE 4.0 mph 12.0 mph 63 % 0.00 in
19:43 14.3 °F 4.0 °F 30.35 in South 5.0 mph 11.0 mph 63 % 0.00 in
19:58 14.2 °F 4.0 °F 30.34 in SSE 1.0 mph 10.0 mph 64 % 0.00 in
20:13 14.3 °F 4.0 °F 30.34 in SSE 2.0 mph 12.0 mph 65 % 0.00 in
20:28 14.5 °F 5.0 °F 30.33 in SE 2.0 mph 7.0 mph 66 % 0.00 in
20:43 14.6 °F 5.0 °F 30.32 in SSE 5.0 mph 9.0 mph 67 % 0.00 in
20:58 14.8 °F 6.0 °F 30.31 in SSE 1.0 mph 9.0 mph 67 % 0.00 in
21:13 15.1 °F 6.0 °F 30.29 in SSE 2.0 mph 10.0 mph 67 % 0.00 in
21:29 15.3 °F 6.0 °F 30.29 in SSE 5.0 mph 9.0 mph 67 % 0.00 in
21:44 15.5 °F 6.0 °F 30.28 in SSE 4.0 mph 9.0 mph 66 % 0.00 in
21:59 15.7 °F 7.0 °F 30.26 in Calm   8.0 mph 67 % 0.00 in
22:14 15.8 °F 7.0 °F 30.25 in SE 4.0 mph 10.0 mph 67 % 0.00 in
22:29 15.8 °F 7.0 °F 30.24 in SE 3.0 mph 10.0 mph 67 % 0.00 in
22:44 15.8 °F 7.0 °F 30.23 in SE 3.0 mph 9.0 mph 68 % 0.00 in
22:59 15.8 °F 7.0 °F 30.23 in SSE 2.0 mph 6.0 mph 68 % 0.00 in
23:14 15.9 °F 7.0 °F 30.23 in SSE 4.0 mph 6.0 mph 68 % 0.00 in
23:29 15.8 °F 7.0 °F 30.22 in SSE 2.0 mph 8.0 mph 68 % 0.00 in
23:44 15.8 °F 7.0 °F 30.20 in SSE 2.0 mph 7.0 mph 68 % 0.00 in
23:59 15.9 °F 7.0 °F 30.20 in South 2.0 mph 8.0 mph 68 % 0.00 in
Des Moines Weather and Climate
Compliments of Weather Underground - 3 mb

Script developed by  Jim McMurry - jmcmurry@mwt.net Adapted for the template by  Wim van der Kuil - Leuven-Template.eu

You find our weather info also at:

Weather Underground

Equipment we use:

Weather-station
Davis VP2 Plus

Weather-program
Davis Weatherlink.Com

Weather-server
iMac (Retina 4K, 21.5-inch, Late 2015)

Provider
Hostmonster.com

Davis VP2 Plus

Davis Weatherlink.Com

iMac (Retina 4K, 21.5-inch, Late 2015)

Hostmonster.com